Sari Indah — 9V2273 — position and weather

sailwx.info

Track history (hours):
 
Tides and Currents Weather Stations Pressure Air Temp Water Temp Dewpoint Dewpoint Depression Visibility Wind Speed Wind Dir Waves Ship Positions

Sari Indah

Last reported at 2017-Oct-09 08:17 UTC. Time now 2017-Oct-17 04:26 UTC.
Position N 46°11' W 125°45'.

Length 228 m; draft 13.1 m.

Type: Cargo ship. MMSI: 563526000.

Date/timePositionNaut miles runAvg speedWind from/ knotsBaromVisibWave heightAir tempDewpointWater temp
2017-Oct-09 08:17N 46°11' W 125°45'3 9.7
2017-Oct-09 08:00N 46°11' W 125°42'5 9.8
2017-Oct-09 07:30N 46°12' W 125°35'5 9.6
2017-Oct-09 07:00N 46°12' W 125°28'5 9.3
2017-Oct-09 06:30N 46°12' W 125°21'4 9.1
2017-Oct-09 06:01N 46°12' W 125°14'4 8.8
2017-Oct-09 05:30N 46°12' W 125°08'4 8.8
2017-Oct-09 05:00N 46°12' W 125°02'5 9.4
2017-Oct-09 04:30N 46°12' W 124°55'4 9.0
2017-Oct-09 04:00N 46°12' W 124°48'4 8.7
2017-Oct-09 03:31N 46°12' W 124°42'5 9.5
2017-Oct-09 03:00N 46°12' W 124°35'4 9.0
2017-Oct-09 02:30N 46°12' W 124°29'4 8.7
2017-Oct-09 02:00N 46°12' W 124°23'4 9.0
2017-Oct-09 01:31N 46°12' W 124°16'6 9.2
2017-Oct-09 00:49N 46°14' W 124°07'3 9.6
2017-Oct-09 00:30N 46°15' W 124°04'611.9
2017-Oct-09 00:01N 46°12' W 123°56'5 9.4
2017-Oct-08 23:30N 46°12' W 123°50'4 8.7
2017-Oct-08 23:00N 46°14' W 123°44'7 9.5
2017-Oct-08 22:16N 46°15' W 123°34'3 9.8
2017-Oct-08 22:01N 46°16' W 123°31'4 8.3
2017-Oct-08 21:31N 46°14' W 123°26'4 8.6
2017-Oct-08 21:01N 46°10' W 123°24'5 9.8
2017-Oct-08 20:30N 46°09' W 123°17'611.8
2017-Oct-08 20:00N 46°11' W 123°10'510.7
2017-Oct-08 19:30N 46°09' W 123°03'5 9.8
2017-Oct-08 19:01N 46°06' W 122°57'5 9.1
2017-Oct-08 18:31N 46°03' W 122°53'710.0
2017-Oct-08 17:47N 45°56' W 122°48'311.4
2017-Oct-08 17:30N 45°53' W 122°48'511.0
2017-Oct-08 17:00N 45°48' W 122°47'511.0
2017-Oct-08 16:31N 45°42' W 122°46'4 7.2
2017-Oct-08 16:01N 45°39' W 122°46'0 0.1
2017-Oct-08 15:31N 45°39' W 122°46'0 0.0
2017-Oct-08 14:25N 45°39' W 122°46'0 0.0
2017-Oct-08 14:01N 45°39' W 122°46'0 0.0
2017-Oct-08 13:30N 45°39' W 122°46'0 0.0
2017-Oct-08 12:49N 45°39' W 122°46'0 0.0
2017-Oct-08 12:28N 45°39' W 122°46'0 0.0
2017-Oct-08 12:00N 45°39' W 122°46'0 0.0
2017-Oct-08 11:25N 45°39' W 122°46'0 0.0
2017-Oct-08 11:01N 45°39' W 122°46'0 0.0
2017-Oct-08 10:28N 45°39' W 122°46'0 0.0
2017-Oct-08 10:00N 45°39' W 122°46'0 0.0
2017-Oct-08 09:31N 45°39' W 122°46'0 0.0
2017-Oct-08 09:01N 45°39' W 122°46'0 0.0
2017-Oct-08 08:04N 45°39' W 122°46'0 0.1
2017-Oct-08 07:58N 45°39' W 122°46'0 0.0
2017-Oct-08 07:19N 45°39' W 122°46'0 0.0
2017-Oct-08 06:58N 45°39' W 122°46'0 0.0
2017-Oct-08 06:25N 45°39' W 122°46'0 0.0
2017-Oct-08 05:55N 45°39' W 122°46'0 0.0
2017-Oct-08 05:28N 45°39' W 122°46'0 0.0
2017-Oct-08 04:52N 45°39' W 122°46'0 0.0
2017-Oct-08 04:22N 45°39' W 122°46'0 0.0
2017-Oct-08 03:58N 45°39' W 122°46'0 0.0
2017-Oct-08 03:19N 45°39' W 122°46'0 0.0
2017-Oct-08 02:54N 45°39' W 122°46'0 0.0
2017-Oct-08 02:30N 45°39' W 122°46'0 0.0
2017-Oct-08 01:22N 45°39' W 122°46'0 0.0
2017-Oct-08 00:58N 45°39' W 122°46'0 0.0
2017-Oct-08 00:28N 45°39' W 122°46'0 0.0
2017-Oct-07 23:55N 45°39' W 122°46'0 0.0
2017-Oct-07 23:31N 45°39' W 122°46'0 0.0
2017-Oct-07 22:58N 45°39' W 122°46'0 0.0
2017-Oct-07 22:31N 45°39' W 122°46'0 0.1
2017-Oct-07 21:58N 45°39' W 122°46'0 0.1
2017-Oct-07 21:31N 45°39' W 122°46'0 0.0
2017-Oct-07 20:58N 45°39' W 122°46'0 0.0
2017-Oct-07 20:24N 45°39' W 122°46'0 0.0
2017-Oct-07 19:58N 45°39' W 122°46'0 0.0
2017-Oct-07 19:21N 45°39' W 122°46'0 0.0
2017-Oct-07 18:55N 45°39' W 122°46'0 0.0
2017-Oct-07 18:28N 45°39' W 122°46'0 0.0
2017-Oct-07 17:58N 45°39' W 122°46'0 0.0
2017-Oct-07 17:24N 45°39' W 122°46'0 0.0
2017-Oct-07 15:58N 45°39' W 122°46'0 0.0
2017-Oct-07 15:24N 45°39' W 122°46'0 0.0
2017-Oct-07 15:00N 45°39' W 122°46'0 0.0
2017-Oct-07 14:30N 45°39' W 122°46'0 0.0
2017-Oct-07 13:57N 45°39' W 122°46'0 0.0
2017-Oct-07 13:31N 45°39' W 122°46'0 0.0
2017-Oct-07 13:00N 45°39' W 122°46'0 0.0
2017-Oct-07 12:30N 45°39' W 122°46'0 0.0
2017-Oct-07 11:54N 45°39' W 122°46'0 0.0
2017-Oct-07 11:30N 45°39' W 122°46'0 0.0
2017-Oct-07 11:00N 45°39' W 122°46'0 0.0
2017-Oct-07 10:30N 45°39' W 122°46'0 0.0
2017-Oct-07 09:57N 45°39' W 122°46'0 0.0
2017-Oct-07 09:30N 45°39' W 122°46'0 0.0
2017-Oct-07 08:54N 45°39' W 122°46'0 0.0
2017-Oct-07 08:03N 45°39' W 122°46'0 0.1
2017-Oct-07 07:58N 45°39' W 122°46'0 0.1
2017-Oct-07 07:28N 45°39' W 122°46'0 0.0
2017-Oct-07 06:46N 45°39' W 122°46'0 0.0
2017-Oct-07 06:30N 45°39' W 122°46'0 0.0
2017-Oct-07 06:00N 45°39' W 122°46'0 0.0
2017-Oct-07 05:24N 45°39' W 122°46'0 0.0
2017-Oct-07 05:00N 45°39' W 122°46'0 0.1
2017-Oct-07 04:28N 45°39' W 122°46'0 0.1
2017-Oct-07 03:54N 45°39' W 122°46'0 0.0
2017-Oct-07 03:30N 45°39' W 122°46'0 0.0
2017-Oct-07 02:31N 45°39' W 122°46'0 0.0
2017-Oct-07 02:30N 45°39' W 122°46'0 0.0
2017-Oct-07 01:58N 45°39' W 122°46'0 0.0
2017-Oct-07 01:28N 45°39' W 122°46'0 0.0
2017-Oct-07 01:00N 45°39' W 122°46'0 0.0
2017-Oct-07 00:30N 45°39' W 122°46'0 0.0
2017-Oct-07 00:01N 45°39' W 122°46'0 0.0
2017-Oct-06 23:28N 45°39' W 122°46'0 0.0
2017-Oct-06 22:57N 45°39' W 122°46'0 0.0
2017-Oct-06 22:27N 45°39' W 122°46'0 0.0
2017-Oct-06 21:58N 45°39' W 122°46'0 0.0
2017-Oct-06 21:03N 45°39' W 122°46'0 0.0
2017-Oct-06 21:00N 45°39' W 122°46'0 0.0
2017-Oct-06 20:28N 45°39' W 122°46'0 0.0
2017-Oct-06 19:55N 45°39' W 122°46'0 0.0
2017-Oct-06 19:28N 45°39' W 122°46'0 0.0
2017-Oct-06 18:52N 45°39' W 122°46'0 0.0
2017-Oct-06 18:28N 45°39' W 122°46'0 0.0
2017-Oct-06 17:58N 45°39' W 122°46'0 0.0
2017-Oct-06 17:25N 45°39' W 122°46'0 0.0
2017-Oct-06 16:58N 45°39' W 122°46'0 0.0
2017-Oct-06 15:52N 45°39' W 122°46'0 0.0
2017-Oct-06 15:27N 45°39' W 122°46'0 0.0
2017-Oct-06 14:39N 45°39' W 122°46'0 0.0
2017-Oct-06 14:09N 45°39' W 122°46'0 0.1
2017-Oct-06 14:00N 45°39' W 122°46'0 0.0
2017-Oct-06 13:30N 45°39' W 122°46'0 0.0
2017-Oct-06 12:57N 45°39' W 122°46'0 0.0
2017-Oct-06 12:15N 45°39' W 122°46'0 0.0
2017-Oct-06 11:48N 45°39' W 122°46'0 0.0
2017-Oct-06 11:27N 45°39' W 122°46'0 0.0
2017-Oct-06 10:57N 45°39' W 122°46'0 0.0
2017-Oct-06 10:27N 45°39' W 122°46'0 0.0
2017-Oct-06 10:00N 45°39' W 122°46'0 0.0
2017-Oct-06 09:30N 45°39' W 122°46'0 0.0
2017-Oct-06 09:00N 45°39' W 122°46'0 0.0
2017-Oct-06 08:21N 45°39' W 122°46'0 0.0
2017-Oct-06 08:00N 45°39' W 122°46'0 0.0
2017-Oct-06 07:30N 45°39' W 122°46'0 0.0
2017-Oct-06 07:00N 45°39' W 122°46'0 0.0
2017-Oct-06 06:30N 45°39' W 122°46'0 0.0
2017-Oct-06 06:00N 45°39' W 122°46'0 0.0
2017-Oct-06 05:30N 45°39' W 122°46'0 0.0
2017-Oct-06 05:00N 45°39' W 122°46'0 0.0
2017-Oct-06 04:27N 45°39' W 122°46'0 0.0
2017-Oct-06 03:58N 45°39' W 122°46'0 0.0
2017-Oct-06 03:19N 45°39' W 122°46'0 0.0
2017-Oct-06 02:51N 45°39' W 122°46'0 0.0
2017-Oct-06 02:30N 45°39' W 122°46'0 0.0
2017-Oct-06 02:00N 45°39' W 122°46'0 0.1
2017-Oct-06 01:30N 45°39' W 122°46'0 0.0
2017-Oct-06 00:51N 45°39' W 122°46'0 0.0
2017-Oct-06 00:30N 45°39' W 122°46'0 0.0
2017-Oct-06 00:01N 45°39' W 122°46'0 0.0
2017-Oct-05 23:27N 45°39' W 122°46'0 0.0
2017-Oct-05 22:57N 45°39' W 122°46'0 0.0
2017-Oct-05 22:27N 45°39' W 122°46'0 0.0
2017-Oct-05 21:54N 45°39' W 122°46'0 0.0
2017-Oct-05 21:15N 45°39' W 122°46'0 0.0
2017-Oct-05 20:57N 45°39' W 122°46'0 0.0
2017-Oct-05 20:30N 45°39' W 122°46'0 0.0
2017-Oct-05 19:57N 45°39' W 122°46'0 0.0
2017-Oct-05 19:30N 45°39' W 122°46'0 0.0
2017-Oct-05 19:01N 45°39' W 122°46'0 0.0
2017-Oct-05 18:30N 45°39' W 122°46'0 0.0
2017-Oct-05 18:00N 45°39' W 122°46'0 0.0
2017-Oct-05 17:30N 45°39' W 122°46'0 0.0
2017-Oct-05 16:57N 45°39' W 122°46'0 0.0
2017-Oct-05 15:09N 45°39' W 122°46'0 0.0
2017-Oct-05 15:00N 45°39' W 122°46'0 0.0
2017-Oct-05 14:30N 45°39' W 122°46'0 0.0
2017-Oct-05 14:00N 45°39' W 122°46'0 0.0
2017-Oct-05 13:27N 45°39' W 122°46'0 0.0
2017-Oct-05 13:00N 45°39' W 122°46'0 0.0
2017-Oct-05 12:27N 45°39' W 122°46'0 0.0
2017-Oct-05 11:51N 45°39' W 122°46'0 0.0
2017-Oct-05 11:27N 45°39' W 122°46'0 0.0
2017-Oct-05 10:51N 45°39' W 122°46'0 0.0
2017-Oct-05 10:30N 45°39' W 122°46'0 0.0
2017-Oct-05 09:57N 45°39' W 122°46'0 0.0
2017-Oct-05 09:24N 45°39' W 122°46'0 0.0
2017-Oct-05 08:57N 45°39' W 122°46'0 0.0
2017-Oct-05 08:24N 45°39' W 122°46'0 0.0
2017-Oct-05 07:42N 45°39' W 122°46'0 0.0
2017-Oct-05 07:30N 45°39' W 122°46'0 0.0
2017-Oct-05 06:54N 45°39' W 122°46'0 0.0
2017-Oct-05 06:30N 45°39' W 122°46'0 0.0
2017-Oct-05 05:36N 45°39' W 122°46'0 0.0
2017-Oct-05 05:30N 45°39' W 122°46'0 0.0
2017-Oct-05 05:00N 45°39' W 122°46'0 0.0
2017-Oct-05 04:27N 45°39' W 122°46'0 0.0
2017-Oct-05 04:00N 45°39' W 122°46'0 0.0
2017-Oct-05 03:27N 45°39' W 122°46'0 0.0
2017-Oct-05 03:00N 45°39' W 122°46'0 0.0
2017-Oct-05 02:30N 45°39' W 122°46'0 0.0
2017-Oct-05 02:00N 45°39' W 122°46'0 0.0
2017-Oct-05 01:30N 45°39' W 122°46'0 0.0
2017-Oct-05 00:57N 45°39' W 122°46'0 0.0
2017-Oct-05 00:30N 45°39' W 122°46'0 0.0
2017-Oct-04 23:54N 45°39' W 122°46'0 0.0
2017-Oct-04 23:27N 45°39' W 122°46'0 0.0
2017-Oct-04 23:00N 45°39' W 122°46'0 0.0
2017-Oct-04 22:30N 45°39' W 122°46'0 0.0
2017-Oct-04 21:42N 45°39' W 122°46'0 0.0
2017-Oct-04 21:27N 45°39' W 122°46'0 0.0
2017-Oct-04 20:57N 45°39' W 122°46'0 0.0
2017-Oct-04 20:30N 45°39' W 122°46'0 0.0
2017-Oct-04 20:00N 45°39' W 122°46'0 0.0
2017-Oct-04 19:24N 45°39' W 122°46'0 0.0
2017-Oct-04 19:00N 45°39' W 122°46'0 0.0
2017-Oct-04 18:21N 45°39' W 122°46'0 0.0
2017-Oct-04 17:57N 45°39' W 122°46'0 0.0
2017-Oct-04 17:30N 45°39' W 122°46'0 0.3
2017-Oct-04 17:01N 45°39' W 122°47'1 1.8
2017-Oct-04 16:31N 45°39' W 122°45'0 0.5
2017-Oct-04 15:58N 45°39' W 122°46'0 0.0
2017-Oct-04 15:28N 45°39' W 122°46'0 0.0
2017-Oct-04 14:55N 45°39' W 122°46'0 0.0
2017-Oct-04 14:28N 45°39' W 122°46'0 0.0
2017-Oct-04 13:58N 45°39' W 122°46'0 0.0
2017-Oct-04 13:28N 45°39' W 122°46'0 0.0
2017-Oct-04 12:55N 45°39' W 122°46'0 0.0
2017-Oct-04 12:28N 45°39' W 122°46'0 0.0
2017-Oct-04 11:58N 45°39' W 122°46'0 0.0
2017-Oct-04 11:28N 45°39' W 122°46'0 0.0
2017-Oct-04 11:01N 45°39' W 122°46'2 3.3
2017-Oct-04 10:30N 45°41' W 122°47'612.8
2017-Oct-04 10:01N 45°47' W 122°46'612.9
2017-Oct-04 09:30N 45°53' W 122°48'713.1
2017-Oct-04 09:00N 45°60' W 122°51'612.0
2017-Oct-04 08:30N 46°05' W 122°54'611.8
2017-Oct-04 08:00N 46°08' W 123°01'912.0
2017-Oct-04 07:15N 46°10' W 123°14'313.5
2017-Oct-04 07:00N 46°09' W 123°19'611.0
2017-Oct-04 06:30N 46°11' W 123°26'611.1
2017-Oct-04 06:00N 46°16' W 123°29'612.7
2017-Oct-04 05:30N 46°16' W 123°38'612.2
2017-Oct-04 05:00N 46°13' W 123°46'0 0.8
2017-Oct-04 04:29N 46°13' W 123°47'0 0.2
2017-Oct-04 03:23N 46°13' W 123°47'0 0.1
2017-Oct-04 02:59N 46°13' W 123°47'0 0.0
2017-Oct-04 02:29N 46°13' W 123°47'0 0.0
2017-Oct-04 01:50N 46°13' W 123°47'0 0.1
2017-Oct-04 01:29N 46°13' W 123°47'0 0.0
2017-Oct-04 00:59N 46°13' W 123°47'0 0.0
2017-Oct-04 00:29N 46°13' W 123°47'0 0.0
2017-Oct-03 23:59N 46°13' W 123°47'0 0.0
2017-Oct-03 23:29N 46°13' W 123°47'0 0.0
2017-Oct-03 22:59N 46°13' W 123°47'0 0.1
2017-Oct-03 22:23N 46°13' W 123°47'0 0.0
2017-Oct-03 21:56N 46°13' W 123°47'0 0.0
2017-Oct-03 21:29N 46°13' W 123°47'0 0.2
2017-Oct-03 20:59N 46°13' W 123°47'0 0.4
2017-Oct-03 20:29N 46°13' W 123°47'0 0.1
2017-Oct-03 19:59N 46°13' W 123°47'0 0.0
2017-Oct-03 19:26N 46°13' W 123°47'0 0.0
2017-Oct-03 18:59N 46°13' W 123°47'0 0.0
2017-Oct-03 18:29N 46°13' W 123°47'0 0.0
2017-Oct-03 17:59N 46°13' W 123°47'0 0.0
2017-Oct-03 17:29N 46°13' W 123°47'0 0.0
2017-Oct-03 16:56N 46°13' W 123°47'0 0.0
2017-Oct-03 16:29N 46°13' W 123°47'0 0.3
2017-Oct-03 15:59N 46°13' W 123°47'0 0.3
2017-Oct-03 15:20N 46°13' W 123°47'0 0.0
2017-Oct-03 14:59N 46°13' W 123°47'0 0.0
2017-Oct-03 13:59N 46°13' W 123°47'0 0.0
2017-Oct-03 13:26N 46°13' W 123°47'0 0.0
2017-Oct-03 12:59N 46°13' W 123°47'0 0.0
2017-Oct-03 12:29N 46°13' W 123°47'0 0.0
2017-Oct-03 11:59N 46°13' W 123°47'0 0.0
2017-Oct-03 11:26N 46°13' W 123°47'0 0.0
2017-Oct-03 10:59N 46°13' W 123°47'0 0.0
2017-Oct-03 10:29N 46°13' W 123°47'0 0.0
2017-Oct-03 09:59N 46°13' W 123°47'0 0.0
2017-Oct-03 09:29N 46°13' W 123°47'0 0.0
2017-Oct-03 08:59N 46°13' W 123°47'0 0.0
2017-Oct-03 08:29N 46°13' W 123°47'0 0.5
2017-Oct-03 07:59N 46°13' W 123°47'0 0.1
2017-Oct-03 07:29N 46°13' W 123°47'0 0.0
2017-Oct-03 06:59N 46°13' W 123°47'0 0.0
2017-Oct-03 06:29N 46°13' W 123°47'0 0.1
2017-Oct-03 05:59N 46°13' W 123°47'0 0.1
2017-Oct-03 05:26N 46°13' W 123°47'0 0.0
2017-Oct-03 04:59N 46°13' W 123°47'0 0.0
2017-Oct-03 04:29N 46°13' W 123°47'0 0.1
2017-Oct-03 03:56N 46°13' W 123°47'0 0.4
2017-Oct-03 03:26N 46°13' W 123°47'0 0.2
2017-Oct-03 02:59N 46°13' W 123°47'0 0.1
2017-Oct-03 02:29N 46°13' W 123°47'0 0.0
2017-Oct-03 01:59N 46°13' W 123°47'0 0.0
2017-Oct-03 01:23N 46°13' W 123°47'0 0.0
2017-Oct-03 00:32N 46°13' W 123°47'0 0.0
2017-Oct-03 00:29N 46°13' W 123°47'0 0.0
2017-Oct-02 23:59N 46°13' W 123°47'0 0.0
2017-Oct-02 23:29N 46°13' W 123°47'0 0.0
2017-Oct-02 22:59N 46°13' W 123°47'0 0.0
2017-Oct-02 22:26N 46°13' W 123°47'0 0.0
2017-Oct-02 21:59N 46°13' W 123°47'0 0.0
2017-Oct-02 21:29N 46°13' W 123°47'0 0.0
2017-Oct-02 20:59N 46°13' W 123°47'0 0.4
2017-Oct-02 20:29N 46°13' W 123°47'0 0.3
2017-Oct-02 19:59N 46°13' W 123°47'0 0.0
2017-Oct-02 19:29N 46°13' W 123°47'0 0.0
2017-Oct-02 18:59N 46°13' W 123°47'0 0.0
2017-Oct-02 18:23N 46°13' W 123°47'0 0.1
2017-Oct-02 17:56N 46°13' W 123°47'0 0.0
2017-Oct-02 17:29N 46°13' W 123°47'0 0.1
2017-Oct-02 16:59N 46°13' W 123°47'0 0.1
2017-Oct-02 16:29N 46°13' W 123°47'0 0.1
2017-Oct-02 15:59N 46°13' W 123°47'0 0.2
2017-Oct-02 15:29N 46°13' W 123°47'0 0.3
2017-Oct-02 14:56N 46°13' W 123°47'0 0.1
2017-Oct-02 14:29N 46°13' W 123°47'0 0.0
2017-Oct-02 13:35N 46°13' W 123°47'0 0.0
2017-Oct-02 13:26N 46°13' W 123°47'0 0.0
2017-Oct-02 12:59N 46°13' W 123°47'0 0.0
2017-Oct-02 12:29N 46°13' W 123°47'0 0.0
2017-Oct-02 11:56N 46°13' W 123°47'0 0.0
2017-Oct-02 11:29N 46°13' W 123°47'0 0.0
2017-Oct-02 10:59N 46°13' W 123°47'0 0.0
2017-Oct-02 10:29N 46°13' W 123°47'0 0.0
2017-Oct-02 09:59N 46°13' W 123°47'0 0.0
2017-Oct-02 09:29N 46°13' W 123°47'0 0.0
2017-Oct-02 08:59N 46°13' W 123°47'0 0.0
2017-Oct-02 08:29N 46°13' W 123°47'0 0.0
2017-Oct-02 07:59N 46°13' W 123°47'0 0.1
2017-Oct-02 07:29N 46°13' W 123°47'0 0.1
2017-Oct-02 06:59N 46°13' W 123°47'0 0.3
2017-Oct-02 06:29N 46°13' W 123°47'0 0.2
2017-Oct-02 05:59N 46°13' W 123°47'0 0.0
2017-Oct-02 04:56N 46°13' W 123°47'0 0.1
2017-Oct-02 04:29N 46°13' W 123°47'0 0.1
2017-Oct-02 04:00N 46°13' W 123°47'0 0.1
2017-Oct-02 03:29N 46°13' W 123°47'0 0.2
2017-Oct-02 02:59N 46°13' W 123°47'0 0.2
2017-Oct-02 02:29N 46°13' W 123°47'0 0.2
2017-Oct-02 01:54N 46°13' W 123°47'0 0.1
2017-Oct-02 01:29N 46°13' W 123°47'0 0.0
2017-Oct-02 01:00N 46°13' W 123°47'0 0.0
2017-Oct-02 00:23N 46°13' W 123°47'0 0.0
2017-Oct-01 23:59N 46°13' W 123°47'0 0.0
2017-Oct-01 23:29N 46°13' W 123°47'0 0.0
2017-Oct-01 22:59N 46°13' W 123°47'0 0.0
2017-Oct-01 22:26N 46°13' W 123°47'0 0.0
2017-Oct-01 21:26N 46°13' W 123°47'0 0.0
2017-Oct-01 20:59N 46°13' W 123°47'0 0.3
2017-Oct-01 20:29N 46°13' W 123°47'0 0.5
2017-Oct-01 19:59N 46°13' W 123°47'0 0.0
2017-Oct-01 19:29N 46°13' W 123°47'0 0.0
2017-Oct-01 18:59N 46°13' W 123°47'0 0.0
2017-Oct-01 18:29N 46°13' W 123°47'0 0.1
2017-Oct-01 17:59N 46°13' W 123°47'0 0.0
2017-Oct-01 17:29N 46°13' W 123°47'0 0.0
2017-Oct-01 16:59N 46°13' W 123°47'0 0.0
2017-Oct-01 16:26N 46°13' W 123°47'0 0.0
2017-Oct-01 15:59N 46°13' W 123°47'0 0.0
2017-Oct-01 15:29N 46°13' W 123°47'0 0.1
2017-Oct-01 14:56N 46°13' W 123°47'0 0.3
2017-Oct-01 14:23N 46°13' W 123°47'0 0.3
2017-Oct-01 13:59N 46°13' W 123°47'0 0.1
2017-Oct-01 13:29N 46°13' W 123°47'0 0.0
2017-Oct-01 12:59N 46°13' W 123°47'0 0.0
2017-Oct-01 12:29N 46°13' W 123°47'0 0.0
2017-Oct-01 11:59N 46°13' W 123°47'0 0.0
2017-Oct-01 11:26N 46°13' W 123°47'0 0.0
2017-Oct-01 10:59N 46°13' W 123°47'0 0.0
2017-Oct-01 10:29N 46°13' W 123°47'0 0.0
2017-Oct-01 09:59N 46°13' W 123°47'0 0.0
2017-Oct-01 09:29N 46°13' W 123°47'0 0.0
2017-Oct-01 08:59N 46°13' W 123°47'0 0.0
2017-Oct-01 08:29N 46°13' W 123°47'0 0.0
2017-Oct-01 07:59N 46°13' W 123°47'0 0.0
2017-Oct-01 07:26N 46°13' W 123°47'0 0.1
2017-Oct-01 06:59N 46°13' W 123°47'0 0.2
2017-Oct-01 06:29N 46°13' W 123°47'0 0.4
2017-Oct-01 05:59N 46°13' W 123°47'0 0.1
2017-Oct-01 05:23N 46°13' W 123°47'0 0.0
2017-Oct-01 04:56N 46°13' W 123°47'0 0.0
2017-Oct-01 04:23N 46°13' W 123°47'0 0.0
2017-Oct-01 03:59N 46°13' W 123°47'0 0.0
2017-Oct-01 02:53N 46°13' W 123°47'0 0.0
2017-Sep-30 01:58N 46°13' W 123°47'0 0.1
2017-Sep-30 01:29N 46°13' W 123°47'0 0.2
2017-Sep-30 00:58N 46°13' W 123°47'0 0.3
2017-Sep-30 00:28N 46°13' W 123°47'0 0.2
2017-Sep-29 23:58N 46°13' W 123°47'0 0.1
2017-Sep-29 23:28N 46°13' W 123°47'0 0.1
2017-Sep-29 22:58N 46°13' W 123°47'0 0.0
2017-Sep-29 22:22N 46°13' W 123°47'0 0.0
2017-Sep-29 21:55N 46°13' W 123°47'0 0.0
2017-Sep-29 21:25N 46°13' W 123°47'0 0.0
2017-Sep-29 20:49N 46°13' W 123°47'0 0.0
2017-Sep-29 20:25N 46°13' W 123°47'0 0.0
2017-Sep-29 19:52N 46°13' W 123°47'0 0.0
2017-Sep-29 19:28N 46°13' W 123°47'0 0.1
2017-Sep-29 18:58N 46°13' W 123°47'0 0.2
2017-Sep-29 18:28N 46°13' W 123°47'0 0.3
2017-Sep-29 17:55N 46°13' W 123°47'0 0.1
2017-Sep-29 17:28N 46°13' W 123°47'0 0.0
2017-Sep-29 16:58N 46°13' W 123°47'0 0.0
2017-Sep-29 15:40N 46°13' W 123°47'0 0.1
2017-Sep-29 15:29N 46°13' W 123°47'0 0.0
2017-Sep-29 14:58N 46°13' W 123°47'0 0.0
2017-Sep-29 14:28N 46°13' W 123°47'0 0.1
2017-Sep-29 13:55N 46°13' W 123°47'0 0.3
2017-Sep-29 13:28N 46°13' W 123°47'0 0.2
2017-Sep-29 12:52N 46°13' W 123°47'0 0.1
2017-Sep-29 12:28N 46°13' W 123°47'0 0.0
2017-Sep-29 11:58N 46°13' W 123°47'0 0.0
2017-Sep-29 11:28N 46°13' W 123°47'0 0.1
2017-Sep-29 10:58N 46°13' W 123°47'0 0.0
2017-Sep-29 10:28N 46°13' W 123°47'0 0.0
2017-Sep-29 09:58N 46°13' W 123°47'0 0.0
2017-Sep-29 09:28N 46°13' W 123°47'0 0.0
2017-Sep-29 08:58N 46°13' W 123°47'0 0.0
2017-Sep-29 08:28N 46°13' W 123°47'  
Track history (hours):
 
Tides and Currents Weather Stations Pressure Air Temp Water Temp Dewpoint Dewpoint Depression Visibility Wind Speed Wind Dir Waves Ship Positions

Sari Indah

Last reported at 2017-Oct-09 08:17 UTC. Time now 2017-Oct-17 04:26 UTC.
Position N 46°11' W 125°45'.

Length 228 m; draft 13.1 m.

Type: Cargo ship. MMSI: 563526000.

Date/timePositionNaut miles runAvg speedWind from/ knotsBaromVisibWave heightAir tempDewpointWater temp
2017-Oct-09 08:17N 46°11' W 125°45'3 9.7
2017-Oct-09 08:00N 46°11' W 125°42'5 9.8
2017-Oct-09 07:30N 46°12' W 125°35'5 9.6
2017-Oct-09 07:00N 46°12' W 125°28'5 9.3
2017-Oct-09 06:30N 46°12' W 125°21'4 9.1
2017-Oct-09 06:01N 46°12' W 125°14'4 8.8
2017-Oct-09 05:30N 46°12' W 125°08'4 8.8
2017-Oct-09 05:00N 46°12' W 125°02'5 9.4
2017-Oct-09 04:30N 46°12' W 124°55'4 9.0
2017-Oct-09 04:00N 46°12' W 124°48'4 8.7
2017-Oct-09 03:31N 46°12' W 124°42'5 9.5
2017-Oct-09 03:00N 46°12' W 124°35'4 9.0
2017-Oct-09 02:30N 46°12' W 124°29'4 8.7
2017-Oct-09 02:00N 46°12' W 124°23'4 9.0
2017-Oct-09 01:31N 46°12' W 124°16'6 9.2
2017-Oct-09 00:49N 46°14' W 124°07'3 9.6
2017-Oct-09 00:30N 46°15' W 124°04'611.9
2017-Oct-09 00:01N 46°12' W 123°56'5 9.4
2017-Oct-08 23:30N 46°12' W 123°50'4 8.7
2017-Oct-08 23:00N 46°14' W 123°44'7 9.5
2017-Oct-08 22:16N 46°15' W 123°34'3 9.8
2017-Oct-08 22:01N 46°16' W 123°31'4 8.3
2017-Oct-08 21:31N 46°14' W 123°26'4 8.6
2017-Oct-08 21:01N 46°10' W 123°24'5 9.8
2017-Oct-08 20:30N 46°09' W 123°17'611.8
2017-Oct-08 20:00N 46°11' W 123°10'510.7
2017-Oct-08 19:30N 46°09' W 123°03'5 9.8
2017-Oct-08 19:01N 46°06' W 122°57'5 9.1
2017-Oct-08 18:31N 46°03' W 122°53'710.0
2017-Oct-08 17:47N 45°56' W 122°48'311.4
2017-Oct-08 17:30N 45°53' W 122°48'511.0
2017-Oct-08 17:00N 45°48' W 122°47'511.0
2017-Oct-08 16:31N 45°42' W 122°46'4 7.2
2017-Oct-08 16:01N 45°39' W 122°46'0 0.1
2017-Oct-08 15:31N 45°39' W 122°46'0 0.0
2017-Oct-08 14:25N 45°39' W 122°46'0 0.0
2017-Oct-08 14:01N 45°39' W 122°46'0 0.0
2017-Oct-08 13:30N 45°39' W 122°46'0 0.0
2017-Oct-08 12:49N 45°39' W 122°46'0 0.0
2017-Oct-08 12:28N 45°39' W 122°46'0 0.0
2017-Oct-08 12:00N 45°39' W 122°46'0 0.0
2017-Oct-08 11:25N 45°39' W 122°46'0 0.0
2017-Oct-08 11:01N 45°39' W 122°46'0 0.0
2017-Oct-08 10:28N 45°39' W 122°46'0 0.0
2017-Oct-08 10:00N 45°39' W 122°46'0 0.0
2017-Oct-08 09:31N 45°39' W 122°46'0 0.0
2017-Oct-08 09:01N 45°39' W 122°46'0 0.0
2017-Oct-08 08:04N 45°39' W 122°46'0 0.1
2017-Oct-08 07:58N 45°39' W 122°46'0 0.0
2017-Oct-08 07:19N 45°39' W 122°46'0 0.0
2017-Oct-08 06:58N 45°39' W 122°46'0 0.0
2017-Oct-08 06:25N 45°39' W 122°46'0 0.0
2017-Oct-08 05:55N 45°39' W 122°46'0 0.0
2017-Oct-08 05:28N 45°39' W 122°46'0 0.0
2017-Oct-08 04:52N 45°39' W 122°46'0 0.0
2017-Oct-08 04:22N 45°39' W 122°46'0 0.0
2017-Oct-08 03:58N 45°39' W 122°46'0 0.0
2017-Oct-08 03:19N 45°39' W 122°46'0 0.0
2017-Oct-08 02:54N 45°39' W 122°46'0 0.0
2017-Oct-08 02:30N 45°39' W 122°46'0 0.0
2017-Oct-08 01:22N 45°39' W 122°46'0 0.0
2017-Oct-08 00:58N 45°39' W 122°46'0 0.0
2017-Oct-08 00:28N 45°39' W 122°46'0 0.0
2017-Oct-07 23:55N 45°39' W 122°46'0 0.0
2017-Oct-07 23:31N 45°39' W 122°46'0 0.0
2017-Oct-07 22:58N 45°39' W 122°46'0 0.0
2017-Oct-07 22:31N 45°39' W 122°46'0 0.1
2017-Oct-07 21:58N 45°39' W 122°46'0 0.1
2017-Oct-07 21:31N 45°39' W 122°46'0 0.0
2017-Oct-07 20:58N 45°39' W 122°46'0 0.0
2017-Oct-07 20:24N 45°39' W 122°46'0 0.0
2017-Oct-07 19:58N 45°39' W 122°46'0 0.0
2017-Oct-07 19:21N 45°39' W 122°46'0 0.0
2017-Oct-07 18:55N 45°39' W 122°46'0 0.0
2017-Oct-07 18:28N 45°39' W 122°46'0 0.0
2017-Oct-07 17:58N 45°39' W 122°46'0 0.0
2017-Oct-07 17:24N 45°39' W 122°46'0 0.0
2017-Oct-07 15:58N 45°39' W 122°46'0 0.0
2017-Oct-07 15:24N 45°39' W 122°46'0 0.0
2017-Oct-07 15:00N 45°39' W 122°46'0 0.0
2017-Oct-07 14:30N 45°39' W 122°46'0 0.0
2017-Oct-07 13:57N 45°39' W 122°46'0 0.0
2017-Oct-07 13:31N 45°39' W 122°46'0 0.0
2017-Oct-07 13:00N 45°39' W 122°46'0 0.0
2017-Oct-07 12:30N 45°39' W 122°46'0 0.0
2017-Oct-07 11:54N 45°39' W 122°46'0 0.0
2017-Oct-07 11:30N 45°39' W 122°46'0 0.0
2017-Oct-07 11:00N 45°39' W 122°46'0 0.0
2017-Oct-07 10:30N 45°39' W 122°46'0 0.0
2017-Oct-07 09:57N 45°39' W 122°46'0 0.0
2017-Oct-07 09:30N 45°39' W 122°46'0 0.0
2017-Oct-07 08:54N 45°39' W 122°46'0 0.0
2017-Oct-07 08:03N 45°39' W 122°46'0 0.1
2017-Oct-07 07:58N 45°39' W 122°46'0 0.1
2017-Oct-07 07:28N 45°39' W 122°46'0 0.0
2017-Oct-07 06:46N 45°39' W 122°46'0 0.0
2017-Oct-07 06:30N 45°39' W 122°46'0 0.0
2017-Oct-07 06:00N 45°39' W 122°46'0 0.0
2017-Oct-07 05:24N 45°39' W 122°46'0 0.0
2017-Oct-07 05:00N 45°39' W 122°46'0 0.1
2017-Oct-07 04:28N 45°39' W 122°46'0 0.1
2017-Oct-07 03:54N 45°39' W 122°46'0 0.0
2017-Oct-07 03:30N 45°39' W 122°46'0 0.0
2017-Oct-07 02:31N 45°39' W 122°46'0 0.0
2017-Oct-07 02:30N 45°39' W 122°46'0 0.0
2017-Oct-07 01:58N 45°39' W 122°46'0 0.0
2017-Oct-07 01:28N 45°39' W 122°46'0 0.0
2017-Oct-07 01:00N 45°39' W 122°46'0 0.0
2017-Oct-07 00:30N 45°39' W 122°46'0 0.0
2017-Oct-07 00:01N 45°39' W 122°46'0 0.0
2017-Oct-06 23:28N 45°39' W 122°46'0 0.0
2017-Oct-06 22:57N 45°39' W 122°46'0 0.0
2017-Oct-06 22:27N 45°39' W 122°46'0 0.0
2017-Oct-06 21:58N 45°39' W 122°46'0 0.0
2017-Oct-06 21:03N 45°39' W 122°46'0 0.0
2017-Oct-06 21:00N 45°39' W 122°46'0 0.0
2017-Oct-06 20:28N 45°39' W 122°46'0 0.0
2017-Oct-06 19:55N 45°39' W 122°46'0 0.0
2017-Oct-06 19:28N 45°39' W 122°46'0 0.0
2017-Oct-06 18:52N 45°39' W 122°46'0 0.0
2017-Oct-06 18:28N 45°39' W 122°46'0 0.0
2017-Oct-06 17:58N 45°39' W 122°46'0 0.0
2017-Oct-06 17:25N 45°39' W 122°46'0 0.0
2017-Oct-06 16:58N 45°39' W 122°46'0 0.0
2017-Oct-06 15:52N 45°39' W 122°46'0 0.0
2017-Oct-06 15:27N 45°39' W 122°46'0 0.0
2017-Oct-06 14:39N 45°39' W 122°46'0 0.0
2017-Oct-06 14:09N 45°39' W 122°46'0 0.1
2017-Oct-06 14:00N 45°39' W 122°46'0 0.0
2017-Oct-06 13:30N 45°39' W 122°46'0 0.0
2017-Oct-06 12:57N 45°39' W 122°46'0 0.0
2017-Oct-06 12:15N 45°39' W 122°46'0 0.0
2017-Oct-06 11:48N 45°39' W 122°46'0 0.0
2017-Oct-06 11:27N 45°39' W 122°46'0 0.0
2017-Oct-06 10:57N 45°39' W 122°46'0 0.0
2017-Oct-06 10:27N 45°39' W 122°46'0 0.0
2017-Oct-06 10:00N 45°39' W 122°46'0 0.0
2017-Oct-06 09:30N 45°39' W 122°46'0 0.0
2017-Oct-06 09:00N 45°39' W 122°46'0 0.0
2017-Oct-06 08:21N 45°39' W 122°46'0 0.0
2017-Oct-06 08:00N 45°39' W 122°46'0 0.0
2017-Oct-06 07:30N 45°39' W 122°46'0 0.0
2017-Oct-06 07:00N 45°39' W 122°46'0 0.0
2017-Oct-06 06:30N 45°39' W 122°46'0 0.0
2017-Oct-06 06:00N 45°39' W 122°46'0 0.0
2017-Oct-06 05:30N 45°39' W 122°46'0 0.0
2017-Oct-06 05:00N 45°39' W 122°46'0 0.0
2017-Oct-06 04:27N 45°39' W 122°46'0 0.0
2017-Oct-06 03:58N 45°39' W 122°46'0 0.0
2017-Oct-06 03:19N 45°39' W 122°46'0 0.0
2017-Oct-06 02:51N 45°39' W 122°46'0 0.0
2017-Oct-06 02:30N 45°39' W 122°46'0 0.0
2017-Oct-06 02:00N 45°39' W 122°46'0 0.1
2017-Oct-06 01:30N 45°39' W 122°46'0 0.0
2017-Oct-06 00:51N 45°39' W 122°46'0 0.0
2017-Oct-06 00:30N 45°39' W 122°46'0 0.0
2017-Oct-06 00:01N 45°39' W 122°46'0 0.0
2017-Oct-05 23:27N 45°39' W 122°46'0 0.0
2017-Oct-05 22:57N 45°39' W 122°46'0 0.0
2017-Oct-05 22:27N 45°39' W 122°46'0 0.0
2017-Oct-05 21:54N 45°39' W 122°46'0 0.0
2017-Oct-05 21:15N 45°39' W 122°46'0 0.0
2017-Oct-05 20:57N 45°39' W 122°46'0 0.0
2017-Oct-05 20:30N 45°39' W 122°46'0 0.0
2017-Oct-05 19:57N 45°39' W 122°46'0 0.0
2017-Oct-05 19:30N 45°39' W 122°46'0 0.0
2017-Oct-05 19:01N 45°39' W 122°46'0 0.0
2017-Oct-05 18:30N 45°39' W 122°46'0 0.0
2017-Oct-05 18:00N 45°39' W 122°46'0 0.0
2017-Oct-05 17:30N 45°39' W 122°46'0 0.0
2017-Oct-05 16:57N 45°39' W 122°46'0 0.0
2017-Oct-05 15:09N 45°39' W 122°46'0 0.0
2017-Oct-05 15:00N 45°39' W 122°46'0 0.0
2017-Oct-05 14:30N 45°39' W 122°46'0 0.0
2017-Oct-05 14:00N 45°39' W 122°46'0 0.0
2017-Oct-05 13:27N 45°39' W 122°46'0 0.0
2017-Oct-05 13:00N 45°39' W 122°46'0 0.0
2017-Oct-05 12:27N 45°39' W 122°46'0 0.0
2017-Oct-05 11:51N 45°39' W 122°46'0 0.0
2017-Oct-05 11:27N 45°39' W 122°46'0 0.0
2017-Oct-05 10:51N 45°39' W 122°46'0 0.0
2017-Oct-05 10:30N 45°39' W 122°46'0 0.0
2017-Oct-05 09:57N 45°39' W 122°46'0 0.0
2017-Oct-05 09:24N 45°39' W 122°46'0 0.0
2017-Oct-05 08:57N 45°39' W 122°46'0 0.0
2017-Oct-05 08:24N 45°39' W 122°46'0 0.0
2017-Oct-05 07:42N 45°39' W 122°46'0 0.0
2017-Oct-05 07:30N 45°39' W 122°46'0 0.0
2017-Oct-05 06:54N 45°39' W 122°46'0 0.0
2017-Oct-05 06:30N 45°39' W 122°46'0 0.0
2017-Oct-05 05:36N 45°39' W 122°46'0 0.0
2017-Oct-05 05:30N 45°39' W 122°46'0 0.0
2017-Oct-05 05:00N 45°39' W 122°46'0 0.0
2017-Oct-05 04:27N 45°39' W 122°46'0 0.0
2017-Oct-05 04:00N 45°39' W 122°46'0 0.0
2017-Oct-05 03:27N 45°39' W 122°46'0 0.0
2017-Oct-05 03:00N 45°39' W 122°46'0 0.0
2017-Oct-05 02:30N 45°39' W 122°46'0 0.0
2017-Oct-05 02:00N 45°39' W 122°46'0 0.0
2017-Oct-05 01:30N 45°39' W 122°46'0 0.0
2017-Oct-05 00:57N 45°39' W 122°46'0 0.0
2017-Oct-05 00:30N 45°39' W 122°46'0 0.0
2017-Oct-04 23:54N 45°39' W 122°46'0 0.0
2017-Oct-04 23:27N 45°39' W 122°46'0 0.0
2017-Oct-04 23:00N 45°39' W 122°46'0 0.0
2017-Oct-04 22:30N 45°39' W 122°46'0 0.0
2017-Oct-04 21:42N 45°39' W 122°46'0 0.0
2017-Oct-04 21:27N 45°39' W 122°46'0 0.0
2017-Oct-04 20:57N 45°39' W 122°46'0 0.0
2017-Oct-04 20:30N 45°39' W 122°46'0 0.0
2017-Oct-04 20:00N 45°39' W 122°46'0 0.0
2017-Oct-04 19:24N 45°39' W 122°46'0 0.0
2017-Oct-04 19:00N 45°39' W 122°46'0 0.0
2017-Oct-04 18:21N 45°39' W 122°46'0 0.0
2017-Oct-04 17:57N 45°39' W 122°46'0 0.0
2017-Oct-04 17:30N 45°39' W 122°46'0 0.3
2017-Oct-04 17:01N 45°39' W 122°47'1 1.8
2017-Oct-04 16:31N 45°39' W 122°45'0 0.5
2017-Oct-04 15:58N 45°39' W 122°46'0 0.0
2017-Oct-04 15:28N 45°39' W 122°46'0 0.0
2017-Oct-04 14:55N 45°39' W 122°46'0 0.0
2017-Oct-04 14:28N 45°39' W 122°46'0 0.0
2017-Oct-04 13:58N 45°39' W 122°46'0 0.0
2017-Oct-04 13:28N 45°39' W 122°46'0 0.0
2017-Oct-04 12:55N 45°39' W 122°46'0 0.0
2017-Oct-04 12:28N 45°39' W 122°46'0 0.0
2017-Oct-04 11:58N 45°39' W 122°46'0 0.0
2017-Oct-04 11:28N 45°39' W 122°46'0 0.0
2017-Oct-04 11:01N 45°39' W 122°46'2 3.3
2017-Oct-04 10:30N 45°41' W 122°47'612.8
2017-Oct-04 10:01N 45°47' W 122°46'612.9
2017-Oct-04 09:30N 45°53' W 122°48'713.1
2017-Oct-04 09:00N 45°60' W 122°51'612.0
2017-Oct-04 08:30N 46°05' W 122°54'611.8
2017-Oct-04 08:00N 46°08' W 123°01'912.0
2017-Oct-04 07:15N 46°10' W 123°14'313.5
2017-Oct-04 07:00N 46°09' W 123°19'611.0
2017-Oct-04 06:30N 46°11' W 123°26'611.1
2017-Oct-04 06:00N 46°16' W 123°29'612.7
2017-Oct-04 05:30N 46°16' W 123°38'612.2
2017-Oct-04 05:00N 46°13' W 123°46'0 0.8
2017-Oct-04 04:29N 46°13' W 123°47'0 0.2
2017-Oct-04 03:23N 46°13' W 123°47'0 0.1
2017-Oct-04 02:59N 46°13' W 123°47'0 0.0
2017-Oct-04 02:29N 46°13' W 123°47'0 0.0
2017-Oct-04 01:50N 46°13' W 123°47'0 0.1
2017-Oct-04 01:29N 46°13' W 123°47'0 0.0
2017-Oct-04 00:59N 46°13' W 123°47'0 0.0
2017-Oct-04 00:29N 46°13' W 123°47'0 0.0
2017-Oct-03 23:59N 46°13' W 123°47'0 0.0
2017-Oct-03 23:29N 46°13' W 123°47'0 0.0
2017-Oct-03 22:59N 46°13' W 123°47'0 0.1
2017-Oct-03 22:23N 46°13' W 123°47'0 0.0
2017-Oct-03 21:56N 46°13' W 123°47'0 0.0
2017-Oct-03 21:29N 46°13' W 123°47'0 0.2
2017-Oct-03 20:59N 46°13' W 123°47'0 0.4
2017-Oct-03 20:29N 46°13' W 123°47'0 0.1
2017-Oct-03 19:59N 46°13' W 123°47'0 0.0
2017-Oct-03 19:26N 46°13' W 123°47'0 0.0
2017-Oct-03 18:59N 46°13' W 123°47'0 0.0
2017-Oct-03 18:29N 46°13' W 123°47'0 0.0
2017-Oct-03 17:59N 46°13' W 123°47'0 0.0
2017-Oct-03 17:29N 46°13' W 123°47'0 0.0
2017-Oct-03 16:56N 46°13' W 123°47'0 0.0
2017-Oct-03 16:29N 46°13' W 123°47'0 0.3
2017-Oct-03 15:59N 46°13' W 123°47'0 0.3
2017-Oct-03 15:20N 46°13' W 123°47'0 0.0
2017-Oct-03 14:59N 46°13' W 123°47'0 0.0
2017-Oct-03 13:59N 46°13' W 123°47'0 0.0
2017-Oct-03 13:26N 46°13' W 123°47'0 0.0
2017-Oct-03 12:59N 46°13' W 123°47'0 0.0
2017-Oct-03 12:29N 46°13' W 123°47'0 0.0
2017-Oct-03 11:59N 46°13' W 123°47'0 0.0
2017-Oct-03 11:26N 46°13' W 123°47'0 0.0
2017-Oct-03 10:59N 46°13' W 123°47'0 0.0
2017-Oct-03 10:29N 46°13' W 123°47'0 0.0
2017-Oct-03 09:59N 46°13' W 123°47'0 0.0
2017-Oct-03 09:29N 46°13' W 123°47'0 0.0
2017-Oct-03 08:59N 46°13' W 123°47'0 0.0
2017-Oct-03 08:29N 46°13' W 123°47'0 0.5
2017-Oct-03 07:59N 46°13' W 123°47'0 0.1
2017-Oct-03 07:29N 46°13' W 123°47'0 0.0
2017-Oct-03 06:59N 46°13' W 123°47'0 0.0
2017-Oct-03 06:29N 46°13' W 123°47'0 0.1
2017-Oct-03 05:59N 46°13' W 123°47'0 0.1
2017-Oct-03 05:26N 46°13' W 123°47'0 0.0
2017-Oct-03 04:59N 46°13' W 123°47'0 0.0
2017-Oct-03 04:29N 46°13' W 123°47'0 0.1
2017-Oct-03 03:56N 46°13' W 123°47'0 0.4
2017-Oct-03 03:26N 46°13' W 123°47'0 0.2
2017-Oct-03 02:59N 46°13' W 123°47'0 0.1
2017-Oct-03 02:29N 46°13' W 123°47'0 0.0
2017-Oct-03 01:59N 46°13' W 123°47'0 0.0
2017-Oct-03 01:23N 46°13' W 123°47'0 0.0
2017-Oct-03 00:32N 46°13' W 123°47'0 0.0
2017-Oct-03 00:29N 46°13' W 123°47'0 0.0
2017-Oct-02 23:59N 46°13' W 123°47'0 0.0
2017-Oct-02 23:29N 46°13' W 123°47'0 0.0
2017-Oct-02 22:59N 46°13' W 123°47'0 0.0
2017-Oct-02 22:26N 46°13' W 123°47'0 0.0
2017-Oct-02 21:59N 46°13' W 123°47'0 0.0
2017-Oct-02 21:29N 46°13' W 123°47'0 0.0
2017-Oct-02 20:59N 46°13' W 123°47'0 0.4
2017-Oct-02 20:29N 46°13' W 123°47'0 0.3
2017-Oct-02 19:59N 46°13' W 123°47'0 0.0
2017-Oct-02 19:29N 46°13' W 123°47'0 0.0
2017-Oct-02 18:59N 46°13' W 123°47'0 0.0
2017-Oct-02 18:23N 46°13' W 123°47'0 0.1
2017-Oct-02 17:56N 46°13' W 123°47'0 0.0
2017-Oct-02 17:29N 46°13' W 123°47'0 0.1
2017-Oct-02 16:59N 46°13' W 123°47'0 0.1
2017-Oct-02 16:29N 46°13' W 123°47'0 0.1
2017-Oct-02 15:59N 46°13' W 123°47'0 0.2
2017-Oct-02 15:29N 46°13' W 123°47'0 0.3
2017-Oct-02 14:56N 46°13' W 123°47'0 0.1
2017-Oct-02 14:29N 46°13' W 123°47'0 0.0
2017-Oct-02 13:35N 46°13' W 123°47'0 0.0
2017-Oct-02 13:26N 46°13' W 123°47'0 0.0
2017-Oct-02 12:59N 46°13' W 123°47'0 0.0
2017-Oct-02 12:29N 46°13' W 123°47'0 0.0
2017-Oct-02 11:56N 46°13' W 123°47'0 0.0
2017-Oct-02 11:29N 46°13' W 123°47'0 0.0
2017-Oct-02 10:59N 46°13' W 123°47'0 0.0
2017-Oct-02 10:29N 46°13' W 123°47'0 0.0
2017-Oct-02 09:59N 46°13' W 123°47'0 0.0
2017-Oct-02 09:29N 46°13' W 123°47'0 0.0
2017-Oct-02 08:59N 46°13' W 123°47'0 0.0
2017-Oct-02 08:29N 46°13' W 123°47'0 0.0
2017-Oct-02 07:59N 46°13' W 123°47'0 0.1
2017-Oct-02 07:29N 46°13' W 123°47'0 0.1
2017-Oct-02 06:59N 46°13' W 123°47'0 0.3
2017-Oct-02 06:29N 46°13' W 123°47'0 0.2
2017-Oct-02 05:59N 46°13' W 123°47'0 0.0
2017-Oct-02 04:56N 46°13' W 123°47'0 0.1
2017-Oct-02 04:29N 46°13' W 123°47'0 0.1
2017-Oct-02 04:00N 46°13' W 123°47'0 0.1
2017-Oct-02 03:29N 46°13' W 123°47'0 0.2
2017-Oct-02 02:59N 46°13' W 123°47'0 0.2
2017-Oct-02 02:29N 46°13' W 123°47'0 0.2
2017-Oct-02 01:54N 46°13' W 123°47'0 0.1
2017-Oct-02 01:29N 46°13' W 123°47'0 0.0
2017-Oct-02 01:00N 46°13' W 123°47'0 0.0
2017-Oct-02 00:23N 46°13' W 123°47'0 0.0
2017-Oct-01 23:59N 46°13' W 123°47'0 0.0
2017-Oct-01 23:29N 46°13' W 123°47'0 0.0
2017-Oct-01 22:59N 46°13' W 123°47'0 0.0
2017-Oct-01 22:26N 46°13' W 123°47'0 0.0
2017-Oct-01 21:26N 46°13' W 123°47'0 0.0
2017-Oct-01 20:59N 46°13' W 123°47'0 0.3
2017-Oct-01 20:29N 46°13' W 123°47'0 0.5
2017-Oct-01 19:59N 46°13' W 123°47'0 0.0
2017-Oct-01 19:29N 46°13' W 123°47'0 0.0
2017-Oct-01 18:59N 46°13' W 123°47'0 0.0
2017-Oct-01 18:29N 46°13' W 123°47'0 0.1
2017-Oct-01 17:59N 46°13' W 123°47'0 0.0
2017-Oct-01 17:29N 46°13' W 123°47'0 0.0
2017-Oct-01 16:59N 46°13' W 123°47'0 0.0
2017-Oct-01 16:26N 46°13' W 123°47'0 0.0
2017-Oct-01 15:59N 46°13' W 123°47'0 0.0
2017-Oct-01 15:29N 46°13' W 123°47'0 0.1
2017-Oct-01 14:56N 46°13' W 123°47'0 0.3
2017-Oct-01 14:23N 46°13' W 123°47'0 0.3
2017-Oct-01 13:59N 46°13' W 123°47'0 0.1
2017-Oct-01 13:29N 46°13' W 123°47'0 0.0
2017-Oct-01 12:59N 46°13' W 123°47'0 0.0
2017-Oct-01 12:29N 46°13' W 123°47'0 0.0
2017-Oct-01 11:59N 46°13' W 123°47'0 0.0
2017-Oct-01 11:26N 46°13' W 123°47'0 0.0
2017-Oct-01 10:59N 46°13' W 123°47'0 0.0
2017-Oct-01 10:29N 46°13' W 123°47'0 0.0
2017-Oct-01 09:59N 46°13' W 123°47'0 0.0
2017-Oct-01 09:29N 46°13' W 123°47'0 0.0
2017-Oct-01 08:59N 46°13' W 123°47'0 0.0
2017-Oct-01 08:29N 46°13' W 123°47'0 0.0
2017-Oct-01 07:59N 46°13' W 123°47'0 0.0
2017-Oct-01 07:26N 46°13' W 123°47'0 0.1
2017-Oct-01 06:59N 46°13' W 123°47'0 0.2
2017-Oct-01 06:29N 46°13' W 123°47'0 0.4
2017-Oct-01 05:59N 46°13' W 123°47'0 0.1
2017-Oct-01 05:23N 46°13' W 123°47'0 0.0
2017-Oct-01 04:56N 46°13' W 123°47'0 0.0
2017-Oct-01 04:23N 46°13' W 123°47'0 0.0
2017-Oct-01 03:59N 46°13' W 123°47'0 0.0
2017-Oct-01 02:53N 46°13' W 123°47'0 0.0
2017-Sep-30 01:58N 46°13' W 123°47'0 0.1
2017-Sep-30 01:29N 46°13' W 123°47'0 0.2
2017-Sep-30 00:58N 46°13' W 123°47'0 0.3
2017-Sep-30 00:28N 46°13' W 123°47'0 0.2
2017-Sep-29 23:58N 46°13' W 123°47'0 0.1
2017-Sep-29 23:28N 46°13' W 123°47'0 0.1
2017-Sep-29 22:58N 46°13' W 123°47'0 0.0
2017-Sep-29 22:22N 46°13' W 123°47'0 0.0
2017-Sep-29 21:55N 46°13' W 123°47'0 0.0
2017-Sep-29 21:25N 46°13' W 123°47'0 0.0
2017-Sep-29 20:49N 46°13' W 123°47'0 0.0
2017-Sep-29 20:25N 46°13' W 123°47'0 0.0
2017-Sep-29 19:52N 46°13' W 123°47'0 0.0
2017-Sep-29 19:28N 46°13' W 123°47'0 0.1
2017-Sep-29 18:58N 46°13' W 123°47'0 0.2
2017-Sep-29 18:28N 46°13' W 123°47'0 0.3
2017-Sep-29 17:55N 46°13' W 123°47'0 0.1
2017-Sep-29 17:28N 46°13' W 123°47'0 0.0
2017-Sep-29 16:58N 46°13' W 123°47'0 0.0
2017-Sep-29 15:40N 46°13' W 123°47'0 0.1
2017-Sep-29 15:29N 46°13' W 123°47'0 0.0
2017-Sep-29 14:58N 46°13' W 123°47'0 0.0
2017-Sep-29 14:28N 46°13' W 123°47'0 0.1
2017-Sep-29 13:55N 46°13' W 123°47'0 0.3
2017-Sep-29 13:28N 46°13' W 123°47'0 0.2
2017-Sep-29 12:52N 46°13' W 123°47'0 0.1
2017-Sep-29 12:28N 46°13' W 123°47'0 0.0
2017-Sep-29 11:58N 46°13' W 123°47'0 0.0
2017-Sep-29 11:28N 46°13' W 123°47'0 0.1
2017-Sep-29 10:58N 46°13' W 123°47'0 0.0
2017-Sep-29 10:28N 46°13' W 123°47'0 0.0
2017-Sep-29 09:58N 46°13' W 123°47'0 0.0
2017-Sep-29 09:28N 46°13' W 123°47'0 0.0
2017-Sep-29 08:58N 46°13' W 123°47'0 0.0
2017-Sep-29 08:28N 46°13' W 123°47'  

Dump ship's entire track history